createdAt,value
2023-01-31T00:01:22.813Z,97904.17
2023-01-31T00:03:53.885Z,97901.20
2023-01-31T00:06:22.209Z,97897.70
2023-01-31T00:08:49.957Z,97894.39
2023-01-31T00:11:18.167Z,97887.43
2023-01-31T00:13:45.731Z,97890.61
2023-01-31T00:16:13.838Z,97892.38
2023-01-31T00:18:41.059Z,97893.67
2023-01-31T00:21:09.399Z,97896.24
2023-01-31T00:23:36.514Z,97893.80
2023-01-31T00:26:11.023Z,97898.77
2023-01-31T00:28:38.519Z,97898.86
2023-01-31T00:31:05.820Z,97900.07
2023-01-31T00:33:34.083Z,97909.69
2023-01-31T00:36:07.807Z,97915.57
2023-01-31T00:38:34.986Z,97925.42
2023-01-31T00:41:03.673Z,97919.16
2023-01-31T00:43:30.938Z,97922.18
2023-01-31T00:45:57.871Z,97923.28
2023-01-31T00:48:25.451Z,97924.71
2023-01-31T00:50:52.841Z,97925.63
2023-01-31T00:53:23.248Z,97920.32
2023-01-31T00:55:50.802Z,97922.08
2023-01-31T00:58:17.806Z,97916.39
2023-01-31T01:00:45.211Z,97916.11
2023-01-31T01:03:12.656Z,97913.47
2023-01-31T01:05:39.776Z,97909.71
2023-01-31T01:08:06.925Z,97910.91
2023-01-31T01:10:34.171Z,97914.30
2023-01-31T01:13:01.765Z,97907.03
2023-01-31T01:15:28.709Z,97909.38
2023-01-31T01:17:55.930Z,97913.88
2023-01-31T01:20:22.828Z,97912.44
2023-01-31T01:22:49.743Z,97915.11
2023-01-31T01:25:16.788Z,97904.61
2023-01-31T01:27:44.025Z,97901.61
2023-01-31T01:30:11.674Z,97903.55
2023-01-31T01:32:38.497Z,97897.63
2023-01-31T01:35:06.111Z,97894.45
2023-01-31T01:37:33.832Z,97890.29
2023-01-31T01:40:00.779Z,97876.86
2023-01-31T01:42:33.221Z,97874.63
2023-01-31T01:45:01.179Z,97888.58
2023-01-31T01:47:39.802Z,97898.44
2023-01-31T01:50:06.653Z,97905.04
2023-01-31T01:52:36.659Z,97903.09
2023-01-31T01:55:06.500Z,97899.44
2023-01-31T01:57:37.233Z,97898.15
2023-01-31T02:00:14.846Z,97907.20
2023-01-31T02:02:43.805Z,97910.76
2023-01-31T02:05:12.919Z,97917.95
2023-01-31T02:07:41.950Z,97914.48
2023-01-31T02:10:27.905Z,97916.84
2023-01-31T02:12:54.886Z,97923.81
2023-01-31T02:15:22.425Z,97923.14
2023-01-31T02:17:50.087Z,97922.61
2023-01-31T02:20:43.162Z,97921.29
2023-01-31T02:23:28.483Z,97919.18
2023-01-31T02:26:15.208Z,97927.70
2023-01-31T02:28:51.136Z,97928.64
2023-01-31T02:31:36.153Z,97932.50
2023-01-31T02:34:09.730Z,97933.63
2023-01-31T02:36:51.461Z,97930.84
2023-01-31T02:39:36.967Z,97927.61
2023-01-31T02:42:13.685Z,97929.77
2023-01-31T02:45:01.608Z,97930.90
2023-01-31T02:47:34.732Z,97934.59
2023-01-31T02:50:11.955Z,97934.20
2023-01-31T02:52:45.473Z,97934.64
2023-01-31T02:55:31.949Z,97934.73
2023-01-31T02:57:59.996Z,97937.27
2023-01-31T03:00:29.082Z,97943.60
2023-01-31T03:02:55.998Z,97942.52
2023-01-31T03:05:23.949Z,97944.01
2023-01-31T03:07:56.190Z,97948.23
2023-01-31T03:10:26.302Z,97948.27
2023-01-31T03:13:12.344Z,97944.06
2023-01-31T03:15:57.775Z,97943.29
2023-01-31T03:18:28.202Z,97934.63
2023-01-31T03:21:16.012Z,97938.70
2023-01-31T03:23:46.063Z,97942.77
2023-01-31T03:26:15.005Z,97948.34
2023-01-31T03:28:43.040Z,97947.65
2023-01-31T03:31:17.687Z,97953.91
2023-01-31T03:33:47.420Z,97952.45
2023-01-31T03:36:17.863Z,97949.80
2023-01-31T03:38:53.767Z,97958.97
2023-01-31T03:41:28.349Z,97965.25
2023-01-31T03:44:00.731Z,97960.64
2023-01-31T03:46:30.634Z,97954.34
2023-01-31T03:48:59.142Z,97952.44
2023-01-31T03:51:28.644Z,97952.60
2023-01-31T03:53:59.078Z,97953.27
2023-01-31T03:56:30.249Z,97950.66
2023-01-31T03:59:00.207Z,97951.17
2023-01-31T04:01:29.075Z,97954.83
2023-01-31T04:03:58.932Z,97959.92
2023-01-31T04:06:26.045Z,97959.35
2023-01-31T04:08:53.109Z,97961.01
2023-01-31T04:11:21.378Z,97964.36
2023-01-31T04:13:48.240Z,97960.52
2023-01-31T04:16:15.344Z,97956.00
2023-01-31T04:18:42.132Z,97955.80
2023-01-31T04:21:09.465Z,97957.77
2023-01-31T04:23:36.744Z,97955.64
2023-01-31T04:26:03.750Z,97959.50
2023-01-31T04:28:31.215Z,97963.59
2023-01-31T04:30:58.239Z,97961.51
2023-01-31T04:33:25.283Z,97966.19
2023-01-31T04:35:52.209Z,97966.89
2023-01-31T04:38:19.047Z,97965.71
2023-01-31T04:40:45.876Z,97969.12
2023-01-31T04:43:12.775Z,97969.77
2023-01-31T04:45:39.692Z,97968.73
2023-01-31T04:48:06.659Z,97975.75
2023-01-31T04:50:33.528Z,97975.55
2023-01-31T04:53:00.595Z,97982.70
2023-01-31T04:55:27.469Z,97986.48
2023-01-31T04:57:54.543Z,97983.89
2023-01-31T05:00:21.543Z,97986.15
2023-01-31T05:02:49.411Z,97990.70
2023-01-31T05:05:16.451Z,97996.09
2023-01-31T05:07:44.258Z,97996.33
2023-01-31T05:10:11.666Z,98000.98
2023-01-31T05:12:38.797Z,98001.19
2023-01-31T05:15:10.543Z,98002.58
2023-01-31T05:17:37.717Z,98010.31
2023-01-31T05:20:05.413Z,98010.21
2023-01-31T05:22:32.523Z,98008.60
2023-01-31T05:24:59.260Z,98010.24
2023-01-31T05:27:26.282Z,98010.35
2023-01-31T05:29:53.330Z,98008.58
2023-01-31T05:32:20.506Z,98011.75
2023-01-31T05:34:47.319Z,98013.39
2023-01-31T05:37:14.240Z,98016.94
2023-01-31T05:39:41.045Z,98020.24
2023-01-31T05:42:07.903Z,98025.05
2023-01-31T05:44:34.913Z,98029.64
2023-01-31T05:47:01.781Z,98030.63
2023-01-31T05:49:32.820Z,98030.20
2023-01-31T05:51:59.962Z,98035.78
2023-01-31T05:54:26.743Z,98037.61
2023-01-31T05:56:53.639Z,98037.91
2023-01-31T05:59:20.397Z,98041.66
2023-01-31T06:01:47.311Z,98048.86
2023-01-31T06:04:14.338Z,98053.67
2023-01-31T06:06:41.956Z,98056.88
2023-01-31T06:09:09.082Z,98062.89
2023-01-31T06:11:36.000Z,98063.29
2023-01-31T06:14:03.032Z,98064.71
2023-01-31T06:16:29.865Z,98068.52
2023-01-31T06:18:56.793Z,98063.56
2023-01-31T06:21:23.673Z,98059.67
2023-01-31T06:23:50.614Z,98058.13
2023-01-31T06:26:17.561Z,98065.19
2023-01-31T06:28:46.180Z,98065.08
2023-01-31T06:31:13.375Z,98071.67
2023-01-31T06:33:46.845Z,98073.41
2023-01-31T06:36:18.386Z,98072.48
2023-01-31T06:38:50.404Z,98064.98
2023-01-31T06:41:18.090Z,98058.35
2023-01-31T06:43:44.962Z,98069.91
2023-01-31T06:46:12.160Z,98071.20
2023-01-31T06:48:39.117Z,98074.79
2023-01-31T06:51:05.917Z,98076.48
2023-01-31T06:53:32.807Z,98079.45
2023-01-31T06:55:59.679Z,98087.74
2023-01-31T06:58:27.540Z,98088.34
2023-01-31T07:00:54.834Z,98095.10
2023-01-31T07:03:21.701Z,98087.70
2023-01-31T07:05:48.772Z,98097.02
2023-01-31T07:08:16.618Z,98097.48
2023-01-31T07:10:43.521Z,98097.39
2023-01-31T07:13:10.729Z,98095.04
2023-01-31T07:15:37.756Z,98096.72
2023-01-31T07:18:05.740Z,98102.08
2023-01-31T07:20:32.602Z,98108.58
2023-01-31T07:22:59.865Z,98118.39
2023-01-31T07:25:27.737Z,98126.15
2023-01-31T07:27:54.791Z,98128.86
2023-01-31T07:30:21.864Z,98128.42
2023-01-31T07:32:49.112Z,98130.44
2023-01-31T07:35:16.452Z,98129.32
2023-01-31T07:37:43.593Z,98129.24
2023-01-31T07:40:10.936Z,98132.71
2023-01-31T07:42:37.824Z,98130.91
2023-01-31T07:45:22.104Z,98121.81
2023-01-31T07:47:50.663Z,98116.31
2023-01-31T07:50:18.537Z,98111.68
2023-01-31T07:52:45.678Z,98112.00
2023-01-31T07:55:12.739Z,98122.15
2023-01-31T07:57:39.637Z,98127.95
2023-01-31T08:00:27.280Z,98131.49
2023-01-31T08:03:12.826Z,98135.98
2023-01-31T08:05:39.787Z,98139.27
2023-01-31T08:08:15.630Z,98143.82
2023-01-31T08:10:42.691Z,98153.02
2023-01-31T08:13:11.238Z,98161.73
2023-01-31T08:15:38.318Z,98175.75
2023-01-31T08:18:06.565Z,98170.77
2023-01-31T08:20:34.157Z,98176.87
2023-01-31T08:23:01.121Z,98180.44
2023-01-31T08:25:30.953Z,98189.21
2023-01-31T08:27:58.209Z,98187.60
2023-01-31T08:30:24.993Z,98188.82
2023-01-31T08:32:51.801Z,98193.61
2023-01-31T08:35:18.712Z,98197.40
2023-01-31T08:37:45.859Z,98201.00
2023-01-31T08:40:13.107Z,98204.09
2023-01-31T08:42:39.968Z,98196.39
2023-01-31T08:45:07.247Z,98199.30
2023-01-31T08:47:36.141Z,98201.91
2023-01-31T08:50:03.069Z,98203.80
2023-01-31T08:52:34.848Z,98204.04
2023-01-31T08:55:01.883Z,98203.48
2023-01-31T08:57:29.241Z,98205.52
2023-01-31T08:59:56.247Z,98208.90
2023-01-31T09:02:23.081Z,98208.88
2023-01-31T09:04:50.191Z,98205.05
2023-01-31T09:07:21.230Z,98210.52
2023-01-31T09:09:48.995Z,98214.50
2023-01-31T09:12:16.087Z,98220.02
2023-01-31T09:14:42.949Z,98225.16
2023-01-31T09:17:10.431Z,98224.73
2023-01-31T09:19:38.636Z,98231.13
2023-01-31T09:22:05.820Z,98230.76
2023-01-31T09:24:33.426Z,98229.36
2023-01-31T09:27:00.534Z,98226.23
2023-01-31T09:29:28.600Z,98226.62
2023-01-31T09:31:55.704Z,98231.27
2023-01-31T09:34:22.720Z,98230.65
2023-01-31T09:36:49.866Z,98231.98
2023-01-31T09:39:17.848Z,98234.34
2023-01-31T09:41:49.195Z,98234.42
2023-01-31T09:44:21.668Z,98234.61
2023-01-31T09:47:06.502Z,98238.42
2023-01-31T09:49:41.152Z,98239.73
2023-01-31T09:52:09.742Z,98235.41
2023-01-31T09:54:39.455Z,98236.33
2023-01-31T09:57:12.572Z,98236.77
2023-01-31T09:59:39.398Z,98237.55
2023-01-31T10:02:25.179Z,98234.01
2023-01-31T10:04:55.237Z,98234.84
2023-01-31T10:07:26.238Z,98230.55
2023-01-31T10:09:56.090Z,98232.41
2023-01-31T10:12:43.211Z,98234.61
2023-01-31T10:15:16.407Z,98231.73
2023-01-31T10:17:46.392Z,98233.70
2023-01-31T10:20:22.670Z,98234.59
2023-01-31T10:23:02.015Z,98236.40
2023-01-31T10:25:34.975Z,98231.79
2023-01-31T10:28:17.579Z,98226.46
2023-01-31T10:30:53.629Z,98225.73
2023-01-31T10:33:39.655Z,98221.73
2023-01-31T10:36:27.805Z,98221.38
2023-01-31T10:39:02.549Z,98223.67
2023-01-31T10:41:34.197Z,98230.58
2023-01-31T10:44:03.852Z,98223.95
2023-01-31T10:46:31.011Z,98225.30
2023-01-31T10:48:58.267Z,98219.40
2023-01-31T10:51:44.046Z,98218.11
2023-01-31T10:54:25.425Z,98220.20
2023-01-31T10:56:52.357Z,98220.25
2023-01-31T10:59:19.227Z,98222.56
2023-01-31T11:01:46.281Z,98223.61
2023-01-31T11:04:34.417Z,98222.91
2023-01-31T11:07:02.171Z,98226.38
2023-01-31T11:09:31.916Z,98225.02
2023-01-31T11:12:03.824Z,98226.55
2023-01-31T11:14:31.048Z,98225.63
2023-01-31T11:17:09.114Z,98222.13
2023-01-31T11:19:43.547Z,98224.63
2023-01-31T11:22:19.979Z,98222.50
2023-01-31T11:24:48.815Z,98219.65
2023-01-31T11:27:24.746Z,98222.43
2023-01-31T11:29:54.186Z,98228.52
2023-01-31T11:32:22.996Z,98230.30
2023-01-31T11:34:59.024Z,98226.23
2023-01-31T11:37:27.835Z,98225.76
2023-01-31T11:40:02.058Z,98229.50
2023-01-31T11:42:29.199Z,98223.02
2023-01-31T11:45:00.558Z,98225.09
2023-01-31T11:47:32.146Z,98226.77
2023-01-31T11:50:00.180Z,98230.30
2023-01-31T11:52:31.627Z,98232.20
2023-01-31T11:55:06.557Z,98230.88
2023-01-31T11:57:37.500Z,98225.91
2023-01-31T12:00:06.462Z,98228.69
2023-01-31T12:02:40.415Z,98233.89
2023-01-31T12:05:08.713Z,98232.34
2023-01-31T12:07:46.591Z,98235.05
2023-01-31T12:10:28.386Z,98234.89
2023-01-31T12:13:08.867Z,98241.48
2023-01-31T12:15:57.482Z,98238.30
2023-01-31T12:18:28.737Z,98238.61
2023-01-31T12:21:15.021Z,98244.38
2023-01-31T12:23:42.074Z,98247.09
2023-01-31T12:26:38.480Z,98248.21
2023-01-31T12:29:25.128Z,98251.52
2023-01-31T12:31:52.143Z,98251.48
2023-01-31T12:34:33.447Z,98255.21
2023-01-31T12:37:12.663Z,98257.39
2023-01-31T12:39:39.612Z,98257.36
2023-01-31T12:42:29.975Z,98258.13
2023-01-31T12:45:11.578Z,98259.06
2023-01-31T12:47:51.030Z,98263.20
2023-01-31T12:50:28.224Z,98263.61
2023-01-31T12:53:09.274Z,98264.73
2023-01-31T12:55:42.881Z,98265.43
2023-01-31T12:58:16.292Z,98262.09
2023-01-31T13:00:49.112Z,98263.38
2023-01-31T13:03:16.085Z,98264.30
2023-01-31T13:05:46.136Z,98262.45
2023-01-31T13:08:18.197Z,98263.80
2023-01-31T13:11:04.082Z,98264.18
2023-01-31T13:13:37.989Z,98259.82
2023-01-31T13:16:07.606Z,98261.45
2023-01-31T13:18:34.873Z,98260.93
2023-01-31T13:21:03.938Z,98259.50
2023-01-31T13:23:34.152Z,98262.05
2023-01-31T13:26:18.188Z,98258.41
2023-01-31T13:28:51.422Z,98263.52
2023-01-31T13:31:27.351Z,98258.15
2023-01-31T13:34:14.794Z,98259.52
2023-01-31T13:36:47.581Z,98260.36
2023-01-31T13:39:18.746Z,98263.21
2023-01-31T13:41:45.692Z,98263.40
2023-01-31T13:44:13.780Z,98263.27
2023-01-31T13:47:03.016Z,98268.36
2023-01-31T13:49:36.306Z,98270.40
2023-01-31T13:52:10.895Z,98271.83
2023-01-31T13:54:43.183Z,98270.57
2023-01-31T13:57:22.427Z,98277.70
2023-01-31T14:00:15.696Z,98279.20
2023-01-31T14:02:59.095Z,98286.29
2023-01-31T14:05:45.172Z,98294.48
2023-01-31T14:08:32.587Z,98294.47
2023-01-31T14:11:00.901Z,98297.83
2023-01-31T14:13:30.922Z,98293.15
2023-01-31T14:15:58.247Z,98294.91
2023-01-31T14:18:45.820Z,98296.81
2023-01-31T14:21:31.826Z,98293.60
2023-01-31T14:23:59.768Z,98287.23
2023-01-31T14:26:33.049Z,98292.98
2023-01-31T14:29:00.314Z,98298.62
2023-01-31T14:31:27.400Z,98300.77
2023-01-31T14:33:57.083Z,98309.20
2023-01-31T14:36:32.426Z,98305.33
2023-01-31T14:39:18.863Z,98303.53
2023-01-31T14:42:04.710Z,98303.92
2023-01-31T14:44:46.856Z,98302.67
2023-01-31T14:47:25.809Z,98305.65
2023-01-31T14:49:52.977Z,98304.10
2023-01-31T14:52:28.114Z,98302.95
2023-01-31T14:54:58.137Z,98302.72
2023-01-31T14:57:26.724Z,98305.66
2023-01-31T14:59:53.679Z,98305.88
2023-01-31T15:02:21.029Z,98310.36
2023-01-31T15:04:56.038Z,98312.65
2023-01-31T15:07:23.430Z,98312.80
2023-01-31T15:09:54.781Z,98315.95
2023-01-31T15:12:40.769Z,98319.38
2023-01-31T15:15:21.673Z,98322.13
2023-01-31T15:17:53.600Z,98320.71
2023-01-31T15:20:49.822Z,98322.23
2023-01-31T15:23:21.341Z,98327.84
2023-01-31T15:25:49.553Z,98319.48
2023-01-31T15:28:19.983Z,98317.92
2023-01-31T15:30:47.913Z,98313.48
2023-01-31T15:33:31.281Z,98309.96
2023-01-31T15:36:01.023Z,98309.27
2023-01-31T15:38:47.085Z,98305.73
2023-01-31T15:41:19.766Z,98308.11
2023-01-31T15:43:47.125Z,98306.56
2023-01-31T15:46:21.981Z,98302.85
2023-01-31T15:48:49.622Z,98296.84
2023-01-31T15:51:18.010Z,98289.23
2023-01-31T15:53:45.468Z,98283.66
2023-01-31T15:56:18.458Z,98280.00
2023-01-31T15:58:47.358Z,98272.02
2023-01-31T16:01:19.043Z,98270.52
2023-01-31T16:03:50.872Z,98284.02
2023-01-31T16:06:20.687Z,98294.42
2023-01-31T16:08:51.537Z,98299.10
2023-01-31T16:11:18.990Z,98308.18
2023-01-31T16:13:46.353Z,98327.77
2023-01-31T16:16:13.876Z,98331.17
2023-01-31T16:18:47.620Z,98333.30
2023-01-31T16:21:26.882Z,98333.27
2023-01-31T16:24:23.211Z,98328.79
2023-01-31T16:27:10.410Z,98333.38
2023-01-31T16:29:45.738Z,98336.23
2023-01-31T16:32:20.969Z,98338.36
2023-01-31T16:34:52.217Z,98342.86
2023-01-31T16:37:29.202Z,98351.02
2023-01-31T16:40:04.965Z,98348.52
2023-01-31T16:42:34.867Z,98352.60
2023-01-31T16:45:02.737Z,98354.48
2023-01-31T16:47:29.688Z,98354.65
2023-01-31T16:50:15.672Z,98358.02
2023-01-31T16:52:43.443Z,98361.16
2023-01-31T16:55:15.101Z,98362.30
2023-01-31T16:57:42.358Z,98362.91
2023-01-31T17:00:25.083Z,98363.93
2023-01-31T17:02:53.576Z,98366.71
2023-01-31T17:05:24.048Z,98367.73
2023-01-31T17:07:53.293Z,98367.03
2023-01-31T17:10:28.593Z,98369.41
2023-01-31T17:13:07.354Z,98377.51
2023-01-31T17:15:34.633Z,98372.75
2023-01-31T17:18:01.745Z,98375.14
2023-01-31T17:20:28.717Z,98371.39
2023-01-31T17:23:02.668Z,98375.09
2023-01-31T17:25:31.834Z,98374.77
2023-01-31T17:27:58.985Z,98372.96
2023-01-31T17:30:28.338Z,98374.16
2023-01-31T17:32:56.775Z,98379.45
2023-01-31T17:35:25.875Z,98382.99
2023-01-31T17:37:53.035Z,98384.50
2023-01-31T17:40:20.447Z,98389.90
2023-01-31T17:42:53.487Z,98396.60
2023-01-31T17:45:21.258Z,98398.05
2023-01-31T17:47:48.506Z,98399.50
2023-01-31T17:50:16.895Z,98403.23
2023-01-31T17:52:44.456Z,98410.56
2023-01-31T17:55:12.048Z,98406.34
2023-01-31T17:57:38.973Z,98402.13
2023-01-31T18:00:10.329Z,98397.15
2023-01-31T18:02:38.120Z,98406.88
2023-01-31T18:05:05.478Z,98411.40
2023-01-31T18:07:32.711Z,98411.25
2023-01-31T18:09:59.660Z,98413.19
2023-01-31T18:12:27.430Z,98413.23
2023-01-31T18:14:54.486Z,98417.86
2023-01-31T18:17:21.943Z,98413.34
2023-01-31T18:19:49.003Z,98418.55
2023-01-31T18:22:16.970Z,98415.36
2023-01-31T18:24:44.442Z,98412.70
2023-01-31T18:27:12.205Z,98405.70
2023-01-31T18:29:39.564Z,98405.91
2023-01-31T18:32:09.221Z,98401.02
2023-01-31T18:34:36.738Z,98399.02
2023-01-31T18:37:14.744Z,98399.91
2023-01-31T18:39:41.797Z,98396.02
2023-01-31T18:42:08.850Z,98399.58
2023-01-31T18:44:36.209Z,98400.54
2023-01-31T18:47:03.377Z,98404.77
2023-01-31T18:49:30.418Z,98406.44
2023-01-31T18:51:57.575Z,98407.77
2023-01-31T18:54:25.034Z,98401.72
2023-01-31T18:56:51.894Z,98400.65
2023-01-31T18:59:19.040Z,98399.57
2023-01-31T19:01:46.419Z,98400.79
2023-01-31T19:04:13.471Z,98403.91
2023-01-31T19:06:40.606Z,98404.95
2023-01-31T19:09:08.897Z,98415.11
2023-01-31T19:11:36.379Z,98412.96
2023-01-31T19:14:06.336Z,98408.73
2023-01-31T19:16:37.529Z,98405.35
2023-01-31T19:19:04.779Z,98407.41
2023-01-31T19:21:32.958Z,98408.57
2023-01-31T19:24:01.338Z,98408.58
2023-01-31T19:26:29.327Z,98412.89
2023-01-31T19:28:58.144Z,98417.42
2023-01-31T19:31:26.525Z,98417.48
2023-01-31T19:33:54.586Z,98419.45
2023-01-31T19:36:23.465Z,98421.58
2023-01-31T19:38:51.131Z,98417.32
2023-01-31T19:41:20.432Z,98419.97
2023-01-31T19:43:49.124Z,98421.82
2023-01-31T19:46:16.289Z,98424.01
2023-01-31T19:48:43.436Z,98423.35
2023-01-31T19:51:12.029Z,98418.89
2023-01-31T19:53:39.821Z,98420.63
2023-01-31T19:56:07.668Z,98421.02
2023-01-31T19:58:34.924Z,98419.98
2023-01-31T20:01:03.412Z,98421.29
2023-01-31T20:03:30.561Z,98422.02
2023-01-31T20:06:27.190Z,98424.47
2023-01-31T20:08:55.783Z,98430.81
2023-01-31T20:11:23.861Z,98426.83
2023-01-31T20:13:51.933Z,98428.80
2023-01-31T20:16:20.014Z,98430.30
2023-01-31T20:18:47.573Z,98429.23
2023-01-31T20:21:16.269Z,98425.64
2023-01-31T20:23:43.631Z,98423.90
2023-01-31T20:26:11.814Z,98426.06
2023-01-31T20:28:39.261Z,98423.45
2023-01-31T20:31:08.018Z,98421.00
2023-01-31T20:33:35.530Z,98419.43
2023-01-31T20:36:02.992Z,98417.48
2023-01-31T20:38:30.469Z,98418.34
2023-01-31T20:40:57.803Z,98418.83
2023-01-31T20:43:25.470Z,98421.98
2023-01-31T20:45:52.758Z,98416.20
2023-01-31T20:48:21.955Z,98419.98
2023-01-31T20:50:55.547Z,98426.19
2023-01-31T20:53:22.893Z,98420.70
2023-01-31T20:56:00.593Z,98420.52
2023-01-31T20:58:29.383Z,98422.58
2023-01-31T21:00:56.975Z,98415.52
2023-01-31T21:03:24.362Z,98412.69
2023-01-31T21:05:51.879Z,98408.66
2023-01-31T21:08:19.553Z,98405.49
2023-01-31T21:10:50.597Z,98410.05
2023-01-31T21:13:18.557Z,98413.54
2023-01-31T21:15:55.398Z,98412.45
2023-01-31T21:18:24.970Z,98411.15
2023-01-31T21:20:51.907Z,98406.31
2023-01-31T21:23:18.955Z,98404.70
2023-01-31T21:25:46.017Z,98397.23
2023-01-31T21:28:13.159Z,98393.70
2023-01-31T21:30:40.411Z,98392.94
2023-01-31T21:33:07.875Z,98389.36
2023-01-31T21:35:34.832Z,98386.91
2023-01-31T21:38:01.982Z,98384.77
2023-01-31T21:40:28.940Z,98388.82
2023-01-31T21:42:56.000Z,98390.31
2023-01-31T21:45:39.005Z,98391.77
2023-01-31T21:48:28.780Z,98398.51
2023-01-31T21:50:56.958Z,98395.66
2023-01-31T21:53:23.877Z,98391.60
2023-01-31T21:55:59.349Z,98392.06
2023-01-31T21:58:26.515Z,98393.16
2023-01-31T22:00:53.556Z,98394.79
2023-01-31T22:03:20.820Z,98396.96
2023-01-31T22:05:47.870Z,98397.05
2023-01-31T22:08:15.023Z,98396.48
2023-01-31T22:10:42.180Z,98390.08
2023-01-31T22:13:09.132Z,98386.42
2023-01-31T22:15:36.208Z,98383.63
2023-01-31T22:18:03.544Z,98379.46
2023-01-31T22:20:30.389Z,98372.55
2023-01-31T22:22:57.545Z,98369.58
2023-01-31T22:25:24.597Z,98370.05
2023-01-31T22:27:52.062Z,98370.67
2023-01-31T22:30:19.138Z,98368.86
2023-01-31T22:32:46.270Z,98372.74
2023-01-31T22:35:13.427Z,98377.34
2023-01-31T22:37:40.783Z,98370.89
2023-01-31T22:40:08.255Z,98371.84
2023-01-31T22:42:35.302Z,98367.15
2023-01-31T22:45:02.459Z,98365.41
2023-01-31T22:47:29.608Z,98355.94
2023-01-31T22:49:56.779Z,98352.80
2023-01-31T22:52:23.821Z,98348.44
2023-01-31T22:54:50.976Z,98344.50
2023-01-31T22:57:17.925Z,98344.14
2023-01-31T22:59:44.987Z,98341.05
2023-01-31T23:02:12.029Z,98339.00
2023-01-31T23:04:39.204Z,98341.87
2023-01-31T23:07:06.343Z,98334.84
2023-01-31T23:09:33.512Z,98322.98
2023-01-31T23:12:00.448Z,98321.09
2023-01-31T23:14:27.916Z,98318.87
2023-01-31T23:17:13.485Z,98319.40
2023-01-31T23:19:40.440Z,98323.59
2023-01-31T23:22:07.492Z,98326.55
2023-01-31T23:24:34.751Z,98324.02
2023-01-31T23:27:01.977Z,98324.54
2023-01-31T23:29:29.166Z,98322.32
2023-01-31T23:31:56.383Z,98325.92
2023-01-31T23:34:23.678Z,98324.86
2023-01-31T23:36:50.837Z,98326.59
2023-01-31T23:39:17.783Z,98322.30
2023-01-31T23:41:44.938Z,98314.91
2023-01-31T23:44:11.996Z,98319.18
2023-01-31T23:46:39.002Z,98311.94
2023-01-31T23:49:06.104Z,98310.70
2023-01-31T23:51:33.386Z,98312.34
2023-01-31T23:54:00.625Z,98311.66
2023-01-31T23:56:27.869Z,98312.29
2023-01-31T23:58:55.132Z,98311.20
